Dobrodošli na spletni strani vremenske postaje Senovo. Vse informacije so informativnega značaja, saj vremenska postaja ni del državne mreže meteoroloških postaj. AKTUALNIH OBVESTIL NI.


Sneg/Led Od: 23-02-2018 00:00 Do: 23:59 Opozorilo za: Sneg/Led Stopnja: Rumena info button

Pogled proti Armezu več informacij Pogled proti Armezu


Lisca več informacij Lisca


Radar strel več informacij blitzortung!


opozorilo za sneg/led več informacij rain snow radar


Obiščite še:

Template documentation
and downloads

And another site



Weather Underground, zgodovina - Tekstovno

Dnevni povzetek za Nil La, TWC- Enote:  Obe    Angleško   Metrično
« Predhodni Dan
Naslednji Dan »
Dnevni Tedenski Mesečni Letni Po meri
  Višja: Nižja: Povprečje:
Temperatura: TemperatureC °F /  -17.8 °C -0.6 °F /  -18.1 °C 0.2 °F /  -17.7 °C
Točka rosišča: DewpointC °F /  -17.8 °C -3.5 °F /  -19.7 °C -2.9 °F /  -19.4 °C
Vlažnost: Humidity % 75 % 79 %
Hitrost vetra: WindSpeedKMH mph /  0 km/h - 4.5 mph /  7.2 km/h
Sunki vetra: WindSpeedGustKMH mph /  0 km/h - -
Veter:- - East
Zračni tlak: PressurehPa in /  0 hPa 1012.1 in /  34269.7 hPa -
Padavine: 1.3 in /  33.02 mm    
Historical Graphs
 
 
Tabelarni podarki za Nil La, TWC-
Čas Temperatura Točka rosišča Zračni tlak Veter Hitrost vetra Sunki vetra Vlažnost Intenziteta padavin (urna)
TemperatureC °F /  -17.8 °C DewpointC °F /  -17.8 °C PressurehPa in /  0 hPa Calm     Humidity % HourlyPrecipMM in /  0 mm
00:04 -0.5 °F /  -18.1 °C -3.5 °F /  -19.7 °C 1013.1 in /  34303.6 hPa South 0.8 mph /  1.3 km/h 3.2 mph /  5.1 km/h 80 % 0.3 in /  7.62 mm
00:09 -0.5 °F /  -18.1 °C -3.5 °F /  -19.7 °C 1013.1 in /  34303.6 hPa SE 2.4 mph /  3.9 km/h 7.2 mph /  11.6 km/h 80 % 0.3 in /  7.62 mm
00:14 -0.5 °F /  -18.1 °C -3.5 °F /  -19.7 °C 1013.1 in /  34303.6 hPa ESE 3.5 mph /  5.6 km/h 7.2 mph /  11.6 km/h 80 % 0.3 in /  7.62 mm
00:19 -0.5 °F /  -18.1 °C -3.5 °F /  -19.7 °C 1013.1 in /  34303.6 hPa ESE 2.9 mph /  4.7 km/h 6.9 mph /  11.1 km/h 80 % 0.3 in /  7.62 mm
00:24 -0.5 °F /  -18.1 °C -3.5 °F /  -19.7 °C 1013.1 in /  34303.6 hPa East 3.2 mph /  5.1 km/h 9.7 mph /  15.6 km/h 80 % 0.3 in /  7.62 mm
00:29 -0.5 °F /  -18.1 °C -3.3 °F /  -19.6 °C 1013.1 in /  34303.6 hPa ENE 3.5 mph /  5.6 km/h 9.7 mph /  15.6 km/h 81 % 0.3 in /  7.62 mm
00:34 -0.5 °F /  -18.1 °C -3.3 °F /  -19.6 °C 1013.1 in /  34303.6 hPa ENE 2.9 mph /  4.7 km/h 9.7 mph /  15.6 km/h 81 % 0.3 in /  7.62 mm
00:39 -0.6 °F /  -18.1 °C -3.4 °F /  -19.7 °C 1013.1 in /  34303.6 hPa ESE 3.1 mph /  5 km/h 6.1 mph /  9.8 km/h 81 % 0.3 in /  7.62 mm
00:44 -0.6 °F /  -18.1 °C -3.4 °F /  -19.7 °C 1013.1 in /  34303.6 hPa ESE 3.4 mph /  5.5 km/h 6.9 mph /  11.1 km/h 81 % 0.3 in /  7.62 mm
00:49 -0.6 °F /  -18.1 °C -3.4 °F /  -19.7 °C 1013.1 in /  34303.6 hPa NE 2.9 mph /  4.7 km/h 6.9 mph /  11.1 km/h 81 % 0.3 in /  7.62 mm
00:54 -0.5 °F /  -18.1 °C -3.3 °F /  -19.6 °C 1013.1 in /  34303.6 hPa ENE 4.0 mph /  6.4 km/h 6.4 mph /  10.3 km/h 81 % 0.3 in /  7.62 mm
00:59 -0.5 °F /  -18.1 °C -3.3 °F /  -19.6 °C 1013.1 in /  34303.6 hPa ESE 3.4 mph /  5.5 km/h 9.0 mph /  14.5 km/h 81 % 0.3 in /  7.62 mm
01:04 -0.5 °F /  -18.1 °C -3.3 °F /  -19.6 °C 1013.1 in /  34303.6 hPa ENE 3.2 mph /  5.1 km/h 9.0 mph /  14.5 km/h 81 % 0.3 in /  7.62 mm
01:09 -0.5 °F /  -18.1 °C -3.3 °F /  -19.6 °C 1013.1 in /  34303.6 hPa ESE 4.3 mph /  6.9 km/h 8.7 mph /  14 km/h 81 % 0.3 in /  7.62 mm
01:14 -0.5 °F /  -18.1 °C -3.2 °F /  -19.6 °C 1013.1 in /  34303.6 hPa ESE 4.2 mph /  6.8 km/h 10.1 mph /  16.3 km/h 82 % 0.3 in /  7.62 mm
01:19 -0.6 °F /  -18.1 °C -3.3 °F /  -19.6 °C 1013.1 in /  34303.6 hPa ESE 3.9 mph /  6.3 km/h 10.1 mph /  16.3 km/h 82 % 0.3 in /  7.62 mm
01:24 -0.6 °F /  -18.1 °C -3.3 °F /  -19.6 °C 1013.1 in /  34303.6 hPa WNW 2.6 mph /  4.2 km/h 6.4 mph /  10.3 km/h 82 % 0.3 in /  7.62 mm
01:29 -0.6 °F /  -18.1 °C -3.3 °F /  -19.6 °C 1013.1 in /  34303.6 hPa South 2.3 mph /  3.7 km/h 4.7 mph /  7.6 km/h 82 % 0.3 in /  7.62 mm
01:34 -0.6 °F /  -18.1 °C -3.3 °F /  -19.6 °C 1013.1 in /  34303.6 hPa SSE 3.1 mph /  5 km/h 6.4 mph /  10.3 km/h 82 % 0.3 in /  7.62 mm
01:39 -0.6 °F /  -18.1 °C -3.3 °F /  -19.6 °C 1013.1 in /  34303.6 hPa SSE 2.9 mph /  4.7 km/h 6.4 mph /  10.3 km/h 82 % 0.3 in /  7.62 mm
01:44 -0.5 °F /  -18.1 °C -3.2 °F /  -19.6 °C 1013.1 in /  34303.6 hPa SE 2.7 mph /  4.3 km/h 6.4 mph /  10.3 km/h 82 % 0.3 in /  7.62 mm
01:49 -0.5 °F /  -18.1 °C -3.2 °F /  -19.6 °C 1013.1 in /  34303.6 hPa SE 3.7 mph /  6 km/h 6.9 mph /  11.1 km/h 82 % 0.3 in /  7.62 mm
01:54 -0.6 °F /  -18.1 °C -3.3 °F /  -19.6 °C 1013.1 in /  34303.6 hPa ESE 3.5 mph /  5.6 km/h 6.9 mph /  11.1 km/h 82 % 0.3 in /  7.62 mm
01:59 -0.6 °F /  -18.1 °C -3.3 °F /  -19.6 °C 1013.1 in /  34303.6 hPa NNE 2.4 mph /  3.9 km/h 6.9 mph /  11.1 km/h 82 % 0.3 in /  7.62 mm
02:04 -0.6 °F /  -18.1 °C -3.3 °F /  -19.6 °C 1013.1 in /  34303.6 hPa NW 2.4 mph /  3.9 km/h 5.5 mph /  8.9 km/h 82 % 0.3 in /  7.62 mm
02:09 -0.6 °F /  -18.1 °C -3.3 °F /  -19.6 °C 1013.1 in /  34303.6 hPa SSW 2.1 mph /  3.4 km/h 5.5 mph /  8.9 km/h 82 % 0.3 in /  7.62 mm
02:14 -0.6 °F /  -18.1 °C -3.3 °F /  -19.6 °C 1013.1 in /  34303.6 hPa SW 2.3 mph /  3.7 km/h 6.4 mph /  10.3 km/h 82 % 0.3 in /  7.62 mm
02:19 -0.6 °F /  -18.1 °C -3.1 °F /  -19.5 °C 1013.1 in /  34303.6 hPa WSW 3.5 mph /  5.6 km/h 6.4 mph /  10.3 km/h 83 % 0.3 in /  7.62 mm
02:24 -0.6 °F /  -18.1 °C -3.1 °F /  -19.5 °C 1013.1 in /  34303.6 hPa WSW 2.7 mph /  4.3 km/h 5.5 mph /  8.9 km/h 83 % 0.3 in /  7.62 mm
02:29 -0.6 °F /  -18.1 °C -3.1 °F /  -19.5 °C 1013.1 in /  34303.6 hPa East 2.6 mph /  4.2 km/h 7.6 mph /  12.2 km/h 83 % 0.3 in /  7.62 mm
02:34 -0.6 °F /  -18.1 °C -3.1 °F /  -19.5 °C 1013.1 in /  34303.6 hPa East 2.7 mph /  4.3 km/h 7.9 mph /  12.7 km/h 83 % 0.0 in /  0 mm
02:39 -0.5 °F /  -18.1 °C -3.1 °F /  -19.5 °C 1013.1 in /  34303.6 hPa ENE 3.4 mph /  5.5 km/h 8.7 mph /  14 km/h 83 % 0.0 in /  0 mm
02:44 -0.4 °F /  -18 °C -2.9 °F /  -19.4 °C 1013.1 in /  34303.6 hPa NNE 4.5 mph /  7.2 km/h 8.7 mph /  14 km/h 83 % 0.0 in /  0 mm
02:49 -0.4 °F /  -18 °C -2.9 °F /  -19.4 °C 1013.1 in /  34303.6 hPa NE 3.5 mph /  5.6 km/h 7.6 mph /  12.2 km/h 83 % 0.0 in /  0 mm
02:54 -0.4 °F /  -18 °C -2.9 °F /  -19.4 °C 1012.1 in /  34269.7 hPa ENE 4.0 mph /  6.4 km/h 13.0 mph /  20.9 km/h 83 % 0.0 in /  0 mm
02:59 -0.3 °F /  -17.9 °C -2.8 °F /  -19.3 °C 1012.1 in /  34269.7 hPa ENE 6.3 mph /  10.1 km/h 15.4 mph /  24.8 km/h 83 % 0.0 in /  0 mm
03:04 -0.3 °F /  -17.9 °C -2.8 °F /  -19.3 °C 1012.1 in /  34269.7 hPa ENE 6.3 mph /  10.1 km/h 15.4 mph /  24.8 km/h 83 % 0.0 in /  0 mm
03:09 -0.3 °F /  -17.9 °C -2.8 °F /  -19.3 °C 1012.1 in /  34269.7 hPa NE 5.8 mph /  9.3 km/h 16.6 mph /  26.7 km/h 83 % 0.0 in /  0 mm
03:14 -0.3 °F /  -17.9 °C -2.8 °F /  -19.3 °C 1012.1 in /  34269.7 hPa NE 5.8 mph /  9.3 km/h 16.6 mph /  26.7 km/h 83 % 0.0 in /  0 mm
03:19 -0.3 °F /  -17.9 °C -2.8 °F /  -19.3 °C 1012.1 in /  34269.7 hPa ENE 4.8 mph /  7.7 km/h 12.2 mph /  19.6 km/h 83 % 0.0 in /  0 mm
03:24 -0.3 °F /  -17.9 °C -3.0 °F /  -19.4 °C 1012.1 in /  34269.7 hPa NE 5.3 mph /  8.5 km/h 14.3 mph /  23 km/h 82 % 0.0 in /  0 mm
03:29 -0.3 °F /  -17.9 °C -3.0 °F /  -19.4 °C 1012.1 in /  34269.7 hPa ENE 6.3 mph /  10.1 km/h 14.3 mph /  23 km/h 82 % 0.0 in /  0 mm
03:34 -0.3 °F /  -17.9 °C -3.0 °F /  -19.4 °C 1012.1 in /  34269.7 hPa NE 6.0 mph /  9.7 km/h 13.7 mph /  22 km/h 82 % 0.0 in /  0 mm
03:39 -0.3 °F /  -17.9 °C -3.0 °F /  -19.4 °C 1012.1 in /  34269.7 hPa NE 5.3 mph /  8.5 km/h 14.0 mph /  22.5 km/h 82 % 0.0 in /  0 mm
03:44 -0.3 °F /  -17.9 °C -3.0 °F /  -19.4 °C 1012.1 in /  34269.7 hPa NE 5.8 mph /  9.3 km/h 20.9 mph /  33.6 km/h 82 % 0.0 in /  0 mm
03:49 -0.3 °F /  -17.9 °C -3.0 °F /  -19.4 °C 1012.1 in /  34269.7 hPa ENE 7.1 mph /  11.4 km/h 20.9 mph /  33.6 km/h 82 % 0.0 in /  0 mm
03:54 -0.3 °F /  -17.9 °C -3.0 °F /  -19.4 °C 1012.1 in /  34269.7 hPa ENE 7.7 mph /  12.4 km/h 14.3 mph /  23 km/h 82 % 0.0 in /  0 mm
03:59 -0.3 °F /  -17.9 °C -3.0 °F /  -19.4 °C 1012.1 in /  34269.7 hPa ENE 6.6 mph /  10.6 km/h 14.3 mph /  23 km/h 82 % 0.0 in /  0 mm
04:04 -0.4 °F /  -18 °C -3.1 °F /  -19.5 °C 1012.1 in /  34269.7 hPa ENE 4.8 mph /  7.7 km/h 13.7 mph /  22 km/h 82 % 0.0 in /  0 mm
04:09 -0.4 °F /  -18 °C -3.3 °F /  -19.6 °C 1012.1 in /  34269.7 hPa ENE 6.0 mph /  9.7 km/h 18.0 mph /  29 km/h 81 % 0.0 in /  0 mm
04:14 -0.4 °F /  -18 °C -3.3 °F /  -19.6 °C 1012.1 in /  34269.7 hPa NE 6.8 mph /  10.9 km/h 18.0 mph /  29 km/h 81 % 0.0 in /  0 mm
04:19 -0.3 °F /  -17.9 °C -3.2 °F /  -19.6 °C 1012.1 in /  34269.7 hPa NE 7.2 mph /  11.6 km/h 17.2 mph /  27.7 km/h 81 % 0.0 in /  0 mm
04:24 -0.4 °F /  -18 °C -3.3 °F /  -19.6 °C 1012.1 in /  34269.7 hPa NE 8.7 mph /  14 km/h 17.2 mph /  27.7 km/h 81 % 0.0 in /  0 mm
04:29 -0.4 °F /  -18 °C -3.3 °F /  -19.6 °C 1012.1 in /  34269.7 hPa NE 7.9 mph /  12.7 km/h 16.6 mph /  26.7 km/h 81 % 0.3 in /  7.62 mm
04:34 -0.4 °F /  -18 °C -3.3 °F /  -19.6 °C 1012.1 in /  34269.7 hPa ENE 7.1 mph /  11.4 km/h 16.6 mph /  26.7 km/h 81 % 0.3 in /  7.62 mm
04:39 -0.4 °F /  -18 °C -3.3 °F /  -19.6 °C 1012.1 in /  34269.7 hPa ENE 7.6 mph /  12.2 km/h 16.6 mph /  26.7 km/h 81 % 0.3 in /  7.62 mm
04:44 -0.5 °F /  -18.1 °C -3.3 °F /  -19.6 °C 1012.1 in /  34269.7 hPa NE 6.1 mph /  9.8 km/h 13.0 mph /  20.9 km/h 81 % 0.3 in /  7.62 mm
04:49 -0.5 °F /  -18.1 °C -3.3 °F /  -19.6 °C 1012.1 in /  34269.7 hPa NE 5.8 mph /  9.3 km/h 14.0 mph /  22.5 km/h 81 % 0.3 in /  7.62 mm
04:54 -0.5 °F /  -18.1 °C -3.3 °F /  -19.6 °C 1012.1 in /  34269.7 hPa NE 7.4 mph /  11.9 km/h 14.0 mph /  22.5 km/h 81 % 0.3 in /  7.62 mm
04:59 -0.5 °F /  -18.1 °C -3.3 °F /  -19.6 °C 1012.1 in /  34269.7 hPa ENE 7.7 mph /  12.4 km/h 17.2 mph /  27.7 km/h 81 % 0.3 in /  7.62 mm
05:04 -0.5 °F /  -18.1 °C -3.3 °F /  -19.6 °C 1012.1 in /  34269.7 hPa NE 6.3 mph /  10.1 km/h 17.2 mph /  27.7 km/h 81 % 0.3 in /  7.62 mm
05:09 -0.5 °F /  -18.1 °C -3.3 °F /  -19.6 °C 1012.1 in /  34269.7 hPa NE 5.3 mph /  8.5 km/h 13.7 mph /  22 km/h 81 % 0.3 in /  7.62 mm
05:14 -0.5 °F /  -18.1 °C -3.3 °F /  -19.6 °C 1012.1 in /  34269.7 hPa NNE 4.3 mph /  6.9 km/h 13.7 mph /  22 km/h 81 % 0.3 in /  7.62 mm
05:19 -0.5 °F /  -18.1 °C -3.3 °F /  -19.6 °C 1012.1 in /  34269.7 hPa NNE 3.2 mph /  5.1 km/h 9.0 mph /  14.5 km/h 81 % 0.3 in /  7.62 mm
05:24 -0.5 °F /  -18.1 °C -3.3 °F /  -19.6 °C 1012.1 in /  34269.7 hPa NE 4.5 mph /  7.2 km/h 9.0 mph /  14.5 km/h 81 % 0.3 in /  7.62 mm
05:29 -0.5 °F /  -18.1 °C -3.3 °F /  -19.6 °C 1012.1 in /  34269.7 hPa ENE 5.0 mph /  8 km/h 9.7 mph /  15.6 km/h 81 % 0.3 in /  7.62 mm
05:34 -0.5 °F /  -18.1 °C -3.3 °F /  -19.6 °C 1012.1 in /  34269.7 hPa NE 5.1 mph /  8.2 km/h 9.7 mph /  15.6 km/h 81 % 0.3 in /  7.62 mm
05:39 -0.5 °F /  -18.1 °C -3.3 °F /  -19.6 °C 1012.1 in /  34269.7 hPa NNE 5.8 mph /  9.3 km/h 11.1 mph /  17.9 km/h 81 % 0.3 in /  7.62 mm
05:44 -0.5 °F /  -18.1 °C -3.3 °F /  -19.6 °C 1012.1 in /  34269.7 hPa NNE 6.1 mph /  9.8 km/h 14.0 mph /  22.5 km/h 81 % 0.3 in /  7.62 mm
05:49 -0.5 °F /  -18.1 °C -3.3 °F /  -19.6 °C 1012.1 in /  34269.7 hPa NE 4.7 mph /  7.6 km/h 14.0 mph /  22.5 km/h 81 % 0.3 in /  7.62 mm
05:54 -0.5 °F /  -18.1 °C -3.3 °F /  -19.6 °C 1012.1 in /  34269.7 hPa ENE 4.5 mph /  7.2 km/h 11.6 mph /  18.7 km/h 81 % 0.3 in /  7.62 mm
05:59 -0.5 °F /  -18.1 °C -3.3 °F /  -19.6 °C 1012.1 in /  34269.7 hPa ENE 3.9 mph /  6.3 km/h 11.6 mph /  18.7 km/h 81 % 0.3 in /  7.62 mm
06:05 -0.5 °F /  -18.1 °C -3.3 °F /  -19.6 °C 1012.1 in /  34269.7 hPa NNE 3.1 mph /  5 km/h 9.0 mph /  14.5 km/h 81 % 0.3 in /  7.62 mm
06:09 -0.5 °F /  -18.1 °C -3.3 °F /  -19.6 °C 1012.1 in /  34269.7 hPa NNE 4.7 mph /  7.6 km/h 9.3 mph /  15 km/h 81 % 0.3 in /  7.62 mm
06:14 -0.5 °F /  -18.1 °C -3.3 °F /  -19.6 °C 1012.1 in /  34269.7 hPa NNE 5.1 mph /  8.2 km/h 9.3 mph /  15 km/h 81 % 0.3 in /  7.62 mm
06:19 -0.5 °F /  -18.1 °C -3.3 °F /  -19.6 °C 1012.1 in /  34269.7 hPa NE 5.3 mph /  8.5 km/h 9.3 mph /  15 km/h 81 % 0.3 in /  7.62 mm
06:24 -0.5 °F /  -18.1 °C -3.3 °F /  -19.6 °C 1012.1 in /  34269.7 hPa NE 4.8 mph /  7.7 km/h 9.3 mph /  15 km/h 81 % 0.3 in /  7.62 mm
06:29 -0.5 °F /  -18.1 °C -3.3 °F /  -19.6 °C 1012.1 in /  34269.7 hPa ENE 3.2 mph /  5.1 km/h 7.2 mph /  11.6 km/h 81 % 0.3 in /  7.62 mm
06:34 -0.5 °F /  -18.1 °C -3.3 °F /  -19.6 °C 1012.1 in /  34269.7 hPa ENE 2.4 mph /  3.9 km/h 6.1 mph /  9.8 km/h 81 % 0.3 in /  7.62 mm
06:39 -0.5 °F /  -18.1 °C -3.3 °F /  -19.6 °C 1012.1 in /  34269.7 hPa East 1.8 mph /  2.9 km/h 6.1 mph /  9.8 km/h 81 % 0.0 in /  0 mm
06:44 -0.5 °F /  -18.1 °C -3.3 °F /  -19.6 °C 1012.1 in /  34269.7 hPa ESE 2.1 mph /  3.4 km/h 6.1 mph /  9.8 km/h 81 % 0.0 in /  0 mm
06:49 -0.5 °F /  -18.1 °C -3.3 °F /  -19.6 °C 1012.1 in /  34269.7 hPa ENE 3.2 mph /  5.1 km/h 6.4 mph /  10.3 km/h 81 % 0.0 in /  0 mm
06:54 -0.5 °F /  -18.1 °C -3.3 °F /  -19.6 °C 1012.1 in /  34269.7 hPa ENE 3.9 mph /  6.3 km/h 10.5 mph /  16.9 km/h 81 % 0.0 in /  0 mm
06:59 -0.5 °F /  -18.1 °C -3.3 °F /  -19.6 °C 1012.1 in /  34269.7 hPa East 4.5 mph /  7.2 km/h 10.5 mph /  16.9 km/h 81 % 0.0 in /  0 mm
07:04 -0.5 °F /  -18.1 °C -3.3 °F /  -19.6 °C 1012.1 in /  34269.7 hPa NE 3.7 mph /  6 km/h 7.9 mph /  12.7 km/h 81 % 0.3 in /  7.62 mm
07:09 -0.5 °F /  -18.1 °C -3.3 °F /  -19.6 °C 1013.1 in /  34303.6 hPa NE 3.5 mph /  5.6 km/h 7.9 mph /  12.7 km/h 81 % 0.3 in /  7.62 mm
07:14 -0.5 °F /  -18.1 °C -3.3 °F /  -19.6 °C 1013.1 in /  34303.6 hPa ENE 4.0 mph /  6.4 km/h 7.6 mph /  12.2 km/h 81 % 0.3 in /  7.62 mm
07:19 -0.5 °F /  -18.1 °C -3.2 °F /  -19.6 °C 1013.1 in /  34303.6 hPa NE 2.6 mph /  4.2 km/h 5.8 mph /  9.3 km/h 82 % 0.3 in /  7.62 mm
07:24 -0.5 °F /  -18.1 °C -3.2 °F /  -19.6 °C 1014.1 in /  34337.4 hPa NE 2.4 mph /  3.9 km/h 7.6 mph /  12.2 km/h 82 % 0.3 in /  7.62 mm
07:29 -0.5 °F /  -18.1 °C -3.2 °F /  -19.6 °C 1014.1 in /  34337.4 hPa ENE 2.7 mph /  4.3 km/h 7.6 mph /  12.2 km/h 82 % 0.3 in /  7.62 mm
07:34 -0.5 °F /  -18.1 °C -3.2 °F /  -19.6 °C 1014.1 in /  34337.4 hPa South 1.9 mph /  3.1 km/h 5.0 mph /  8 km/h 82 % 0.3 in /  7.62 mm
07:40 -0.5 °F /  -18.1 °C -3.2 °F /  -19.6 °C 1013.1 in /  34303.6 hPa SE 3.2 mph /  5.1 km/h 9.7 mph /  15.6 km/h 82 % 0.3 in /  7.62 mm
07:45 -0.5 °F /  -18.1 °C -3.2 °F /  -19.6 °C 1013.1 in /  34303.6 hPa SE 4.8 mph /  7.7 km/h 9.7 mph /  15.6 km/h 82 % 0.3 in /  7.62 mm
07:50 -0.4 °F /  -18 °C -3.1 °F /  -19.5 °C 1013.1 in /  34303.6 hPa SE 3.7 mph /  6 km/h 9.0 mph /  14.5 km/h 82 % 0.3 in /  7.62 mm
07:55 -0.4 °F /  -18 °C -3.1 °F /  -19.5 °C 1013.1 in /  34303.6 hPa ESE 2.7 mph /  4.3 km/h 6.1 mph /  9.8 km/h 82 % 0.3 in /  7.62 mm
08:00 -0.4 °F /  -18 °C -3.1 °F /  -19.5 °C 1013.1 in /  34303.6 hPa SE 2.9 mph /  4.7 km/h 9.3 mph /  15 km/h 82 % 0.3 in /  7.62 mm
08:05 -0.4 °F /  -18 °C -3.1 °F /  -19.5 °C 1013.1 in /  34303.6 hPa SSE 3.7 mph /  6 km/h 9.3 mph /  15 km/h 82 % 0.0 in /  0 mm
08:10 -0.4 °F /  -18 °C -3.1 °F /  -19.5 °C 1013.1 in /  34303.6 hPa SW 2.7 mph /  4.3 km/h 6.9 mph /  11.1 km/h 82 % 0.0 in /  0 mm
08:15 -0.3 °F /  -17.9 °C -3.0 °F /  -19.4 °C 1013.1 in /  34303.6 hPa SSE 2.3 mph /  3.7 km/h 5.8 mph /  9.3 km/h 82 % 0.0 in /  0 mm
08:20 -0.3 °F /  -17.9 °C -3.0 °F /  -19.4 °C 1013.1 in /  34303.6 hPa SE 2.6 mph /  4.2 km/h 5.8 mph /  9.3 km/h 82 % 0.0 in /  0 mm
08:25 -0.3 °F /  -17.9 °C -3.0 °F /  -19.4 °C 1013.1 in /  34303.6 hPa SE 1.3 mph /  2.1 km/h 4.0 mph /  6.4 km/h 82 % 0.0 in /  0 mm
08:30 -0.2 °F /  -17.9 °C -2.9 °F /  -19.4 °C 1013.1 in /  34303.6 hPa SW 0.6 mph /  1 km/h 5.0 mph /  8 km/h 82 % 0.3 in /  7.62 mm
08:35 -0.2 °F /  -17.9 °C -2.9 °F /  -19.4 °C 1013.1 in /  34303.6 hPa ESE 2.1 mph /  3.4 km/h 7.9 mph /  12.7 km/h 82 % 0.3 in /  7.62 mm
08:40 -0.1 °F /  -17.8 °C -2.8 °F /  -19.3 °C 1013.1 in /  34303.6 hPa East 2.6 mph /  4.2 km/h 7.9 mph /  12.7 km/h 82 % 0.3 in /  7.62 mm
08:45 -0.1 °F /  -17.8 °C -2.8 °F /  -19.3 °C 1013.1 in /  34303.6 hPa ENE 3.2 mph /  5.1 km/h 8.7 mph /  14 km/h 82 % 0.3 in /  7.62 mm
08:50 -0.1 °F /  -17.8 °C -2.8 °F /  -19.3 °C 1013.1 in /  34303.6 hPa NE 4.8 mph /  7.7 km/h 9.0 mph /  14.5 km/h 82 % 0.3 in /  7.62 mm
08:55 -0.1 °F /  -17.8 °C -2.8 °F /  -19.3 °C 1012.1 in /  34269.7 hPa NNE 4.8 mph /  7.7 km/h 9.7 mph /  15.6 km/h 82 % 0.3 in /  7.62 mm
09:00 0.0 °F /  -17.8 °C -2.7 °F /  -19.3 °C 1012.1 in /  34269.7 hPa NE 3.9 mph /  6.3 km/h 9.7 mph /  15.6 km/h 82 % 0.3 in /  7.62 mm
09:05 0.0 °F /  -17.8 °C -2.7 °F /  -19.3 °C 1012.1 in /  34269.7 hPa ESE 3.2 mph /  5.1 km/h 9.3 mph /  15 km/h 82 % 0.3 in /  7.62 mm
09:10 -0.1 °F /  -17.8 °C -2.8 °F /  -19.3 °C 1012.1 in /  34269.7 hPa East 4.0 mph /  6.4 km/h 8.7 mph /  14 km/h 82 % 0.3 in /  7.62 mm
09:15 0.0 °F /  -17.8 °C -2.7 °F /  -19.3 °C 1012.1 in /  34269.7 hPa South 4.7 mph /  7.6 km/h 8.7 mph /  14 km/h 82 % 0.3 in /  7.62 mm
09:20 0.0 °F /  -17.8 °C -2.7 °F /  -19.3 °C 1012.1 in /  34269.7 hPa SSE 3.7 mph /  6 km/h 6.4 mph /  10.3 km/h 82 % 0.3 in /  7.62 mm
09:25 0.0 °F /  -17.8 °C -2.7 °F /  -19.3 °C 1013.1 in /  34303.6 hPa SE 3.4 mph /  5.5 km/h 6.1 mph /  9.8 km/h 82 % 0.3 in /  7.62 mm
09:30 0.0 °F /  -17.8 °C -2.7 °F /  -19.3 °C 1013.1 in /  34303.6 hPa NE 3.4 mph /  5.5 km/h 5.8 mph /  9.3 km/h 82 % 0.0 in /  0 mm
09:35 0.1 °F /  -17.7 °C -2.6 °F /  -19.2 °C 1013.1 in /  34303.6 hPa NE 3.7 mph /  6 km/h 6.9 mph /  11.1 km/h 82 % 0.0 in /  0 mm
09:40 0.1 °F /  -17.7 °C -2.6 °F /  -19.2 °C 1012.1 in /  34269.7 hPa ENE 4.3 mph /  6.9 km/h 6.9 mph /  11.1 km/h 82 % 0.0 in /  0 mm
09:45 0.1 °F /  -17.7 °C -2.6 °F /  -19.2 °C 1012.1 in /  34269.7 hPa ESE 5.0 mph /  8 km/h 10.5 mph /  16.9 km/h 82 % 0.0 in /  0 mm
09:50 0.1 °F /  -17.7 °C -2.6 °F /  -19.2 °C 1012.1 in /  34269.7 hPa East 6.1 mph /  9.8 km/h 12.2 mph /  19.6 km/h 82 % 0.0 in /  0 mm
09:55 0.2 °F /  -17.7 °C -2.5 °F /  -19.2 °C 1013.1 in /  34303.6 hPa ENE 5.3 mph /  8.5 km/h 12.2 mph /  19.6 km/h 82 % 0.0 in /  0 mm
10:00 0.2 °F /  -17.7 °C -2.5 °F /  -19.2 °C 1013.1 in /  34303.6 hPa ESE 3.1 mph /  5 km/h 8.7 mph /  14 km/h 82 % 0.0 in /  0 mm
10:05 0.3 °F /  -17.6 °C -2.4 °F /  -19.1 °C 1013.1 in /  34303.6 hPa East 3.4 mph /  5.5 km/h 7.9 mph /  12.7 km/h 82 % 0.0 in /  0 mm
10:10 0.3 °F /  -17.6 °C -2.6 °F /  -19.2 °C 1013.1 in /  34303.6 hPa ENE 4.5 mph /  7.2 km/h 7.9 mph /  12.7 km/h 81 % 0.0 in /  0 mm
10:15 0.3 °F /  -17.6 °C -2.6 °F /  -19.2 °C 1013.1 in /  34303.6 hPa ENE 4.5 mph /  7.2 km/h 6.9 mph /  11.1 km/h 81 % 0.0 in /  0 mm
10:20 0.4 °F /  -17.6 °C -2.5 °F /  -19.2 °C 1013.1 in /  34303.6 hPa East 4.7 mph /  7.6 km/h 11.9 mph /  19.2 km/h 81 % 0.0 in /  0 mm
10:25 0.4 °F /  -17.6 °C -2.5 °F /  -19.2 °C 1013.1 in /  34303.6 hPa ESE 4.7 mph /  7.6 km/h 11.9 mph /  19.2 km/h 81 % 0.0 in /  0 mm
10:30 0.5 °F /  -17.5 °C -2.4 °F /  -19.1 °C 1013.1 in /  34303.6 hPa East 4.0 mph /  6.4 km/h 9.7 mph /  15.6 km/h 81 % 0.0 in /  0 mm
10:35 0.6 °F /  -17.4 °C -2.3 °F /  -19.1 °C 1013.1 in /  34303.6 hPa ENE 3.2 mph /  5.1 km/h 6.9 mph /  11.1 km/h 81 % 0.0 in /  0 mm
10:40 0.8 °F /  -17.3 °C -2.1 °F /  -18.9 °C 1013.1 in /  34303.6 hPa East 3.2 mph /  5.1 km/h 6.1 mph /  9.8 km/h 81 % 0.0 in /  0 mm
10:45 0.9 °F /  -17.3 °C -2.0 °F /  -18.9 °C 1013.1 in /  34303.6 hPa East 4.0 mph /  6.4 km/h 11.6 mph /  18.7 km/h 81 % 0.0 in /  0 mm
10:50 0.9 °F /  -17.3 °C -2.0 °F /  -18.9 °C 1013.1 in /  34303.6 hPa East 5.5 mph /  8.9 km/h 16.6 mph /  26.7 km/h 81 % 0.0 in /  0 mm
10:55 1.0 °F /  -17.2 °C -1.9 °F /  -18.8 °C 1014.1 in /  34337.4 hPa East 6.1 mph /  9.8 km/h 16.6 mph /  26.7 km/h 81 % 0.0 in /  0 mm
11:00 1.0 °F /  -17.2 °C -2.1 °F /  -18.9 °C 1014.1 in /  34337.4 hPa East 4.3 mph /  6.9 km/h 10.5 mph /  16.9 km/h 80 % 0.0 in /  0 mm
11:05 1.1 °F /  -17.2 °C -1.9 °F /  -18.8 °C 1014.1 in /  34337.4 hPa ENE 3.7 mph /  6 km/h 10.5 mph /  16.9 km/h 80 % 0.0 in /  0 mm
11:10 1.3 °F /  -17.1 °C -1.8 °F /  -18.8 °C 1014.1 in /  34337.4 hPa East 3.7 mph /  6 km/h 6.1 mph /  9.8 km/h 80 % 0.0 in /  0 mm
11:15 1.4 °F /  -17 °C -1.7 °F /  -18.7 °C 1014.1 in /  34337.4 hPa East 3.1 mph /  5 km/h 10.1 mph /  16.3 km/h 80 % 0.0 in /  0 mm
11:20 1.4 °F /  -17 °C -1.7 °F /  -18.7 °C 1014.1 in /  34337.4 hPa ESE 3.7 mph /  6 km/h 10.1 mph /  16.3 km/h 80 % 0.0 in /  0 mm
11:25 1.4 °F /  -17 °C -1.7 °F /  -18.7 °C 1014.1 in /  34337.4 hPa ESE 3.7 mph /  6 km/h 8.7 mph /  14 km/h 80 % 0.0 in /  0 mm
11:30 1.4 °F /  -17 °C -1.7 °F /  -18.7 °C 1014.1 in /  34337.4 hPa East 3.5 mph /  5.6 km/h 13.0 mph /  20.9 km/h 80 % 0.0 in /  0 mm
11:35 1.3 °F /  -17.1 °C -1.9 °F /  -18.8 °C 1014.1 in /  34337.4 hPa East 5.5 mph /  8.9 km/h 13.0 mph /  20.9 km/h 79 % 0.0 in /  0 mm
11:40 1.3 °F /  -17.1 °C -1.9 °F /  -18.8 °C 1013.1 in /  34303.6 hPa East 5.8 mph /  9.3 km/h 12.2 mph /  19.6 km/h 79 % 0.0 in /  0 mm
11:45 1.3 °F /  -17.1 °C -1.9 °F /  -18.8 °C 1013.1 in /  34303.6 hPa East 4.5 mph /  7.2 km/h 9.7 mph /  15.6 km/h 79 % 0.0 in /  0 mm
11:50 1.4 °F /  -17 °C -1.8 °F /  -18.8 °C 1013.1 in /  34303.6 hPa East 4.2 mph /  6.8 km/h 9.3 mph /  15 km/h 79 % 0.0 in /  0 mm
11:55 1.4 °F /  -17 °C -1.8 °F /  -18.8 °C 1013.1 in /  34303.6 hPa East 5.5 mph /  8.9 km/h 13.0 mph /  20.9 km/h 79 % 0.0 in /  0 mm
12:01 1.4 °F /  -17 °C -1.8 °F /  -18.8 °C 1013.1 in /  34303.6 hPa East 6.0 mph /  9.7 km/h 13.0 mph /  20.9 km/h 79 % 0.0 in /  0 mm
12:05 1.4 °F /  -17 °C -1.8 °F /  -18.8 °C 1013.1 in /  34303.6 hPa East 4.2 mph /  6.8 km/h 9.3 mph /  15 km/h 79 % 0.0 in /  0 mm
12:11 1.4 °F /  -17 °C -1.8 °F /  -18.8 °C 1013.1 in /  34303.6 hPa ENE 4.0 mph /  6.4 km/h 12.6 mph /  20.3 km/h 79 % 0.0 in /  0 mm
12:16 1.5 °F /  -16.9 °C -1.9 °F /  -18.8 °C 1013.1 in /  34303.6 hPa East 5.8 mph /  9.3 km/h 12.6 mph /  20.3 km/h 78 % 0.0 in /  0 mm
12:21 1.5 °F /  -16.9 °C -1.9 °F /  -18.8 °C 1013.1 in /  34303.6 hPa ENE 5.6 mph /  9 km/h 10.5 mph /  16.9 km/h 78 % 0.0 in /  0 mm
12:26 1.5 °F /  -16.9 °C -1.9 °F /  -18.8 °C 1013.1 in /  34303.6 hPa ENE 4.5 mph /  7.2 km/h 9.0 mph /  14.5 km/h 78 % 0.0 in /  0 mm
12:31 1.5 °F /  -16.9 °C -1.9 °F /  -18.8 °C 1013.1 in /  34303.6 hPa East 4.7 mph /  7.6 km/h 9.0 mph /  14.5 km/h 78 % 0.0 in /  0 mm
12:36 1.4 °F /  -17 °C -2.0 °F /  -18.9 °C 1013.1 in /  34303.6 hPa ENE 5.1 mph /  8.2 km/h 9.3 mph /  15 km/h 78 % 0.0 in /  0 mm
12:41 1.2 °F /  -17.1 °C -2.4 °F /  -19.1 °C 1014.1 in /  34337.4 hPa NE 5.1 mph /  8.2 km/h 9.7 mph /  15.6 km/h 77 % 0.0 in /  0 mm
12:46 1.2 °F /  -17.1 °C -2.4 °F /  -19.1 °C 1014.1 in /  34337.4 hPa ENE 4.8 mph /  7.7 km/h 9.7 mph /  15.6 km/h 77 % 0.0 in /  0 mm
12:51 1.1 °F /  -17.2 °C -2.5 °F /  -19.2 °C 1014.1 in /  34337.4 hPa ENE 4.7 mph /  7.6 km/h 11.9 mph /  19.2 km/h 77 % 0.0 in /  0 mm
12:56 1.1 °F /  -17.2 °C -2.5 °F /  -19.2 °C 1014.1 in /  34337.4 hPa NE 5.8 mph /  9.3 km/h 11.9 mph /  19.2 km/h 77 % 0.0 in /  0 mm
13:01 1.1 °F /  -17.2 °C -2.5 °F /  -19.2 °C 1014.1 in /  34337.4 hPa ENE 5.3 mph /  8.5 km/h 10.5 mph /  16.9 km/h 77 % 0.0 in /  0 mm
13:06 1.3 °F /  -17.1 °C -2.4 °F /  -19.1 °C 1014.1 in /  34337.4 hPa East 4.2 mph /  6.8 km/h 14.0 mph /  22.5 km/h 76 % 0.0 in /  0 mm
13:11 1.4 °F /  -17 °C -2.4 °F /  -19.1 °C 1014.1 in /  34337.4 hPa East 4.7 mph /  7.6 km/h 14.0 mph /  22.5 km/h 76 % 0.0 in /  0 mm
13:16 1.4 °F /  -17 °C -2.4 °F /  -19.1 °C 1014.1 in /  34337.4 hPa East 5.3 mph /  8.5 km/h 9.0 mph /  14.5 km/h 76 % 0.0 in /  0 mm
13:21 1.4 °F /  -17 °C -2.4 °F /  -19.1 °C 1014.1 in /  34337.4 hPa East 6.0 mph /  9.7 km/h 10.1 mph /  16.3 km/h 76 % 0.0 in /  0 mm
13:26 1.4 °F /  -17 °C -2.4 °F /  -19.1 °C 1013.1 in /  34303.6 hPa East 5.3 mph /  8.5 km/h 10.1 mph /  16.3 km/h 76 % 0.0 in /  0 mm
13:31 1.4 °F /  -17 °C -2.4 °F /  -19.1 °C 1013.1 in /  34303.6 hPa East 5.3 mph /  8.5 km/h 12.2 mph /  19.6 km/h 76 % 0.0 in /  0 mm
13:36 1.4 °F /  -17 °C -2.4 °F /  -19.1 °C 1013.1 in /  34303.6 hPa East 5.5 mph /  8.9 km/h 12.2 mph /  19.6 km/h 76 % 0.0 in /  0 mm
13:41 1.4 °F /  -17 °C -2.4 °F /  -19.1 °C 1014.1 in /  34337.4 hPa East 5.6 mph /  9 km/h 11.9 mph /  19.2 km/h 76 % 0.0 in /  0 mm
13:46 1.3 °F /  -17.1 °C -2.4 °F /  -19.1 °C 1014.1 in /  34337.4 hPa East 5.6 mph /  9 km/h 11.6 mph /  18.7 km/h 76 % 0.0 in /  0 mm
13:51 1.3 °F /  -17.1 °C -2.7 °F /  -19.3 °C 1014.1 in /  34337.4 hPa East 5.6 mph /  9 km/h 11.6 mph /  18.7 km/h 75 % 0.0 in /  0 mm
13:56 1.2 °F /  -17.1 °C -2.7 °F /  -19.3 °C 1014.1 in /  34337.4 hPa East 6.1 mph /  9.8 km/h 10.1 mph /  16.3 km/h 75 % 0.0 in /  0 mm
14:01 1.2 °F /  -17.1 °C -2.7 °F /  -19.3 °C 1014.1 in /  34337.4 hPa ENE 6.0 mph /  9.7 km/h 12.2 mph /  19.6 km/h 75 % 0.0 in /  0 mm
14:06 1.2 °F /  -17.1 °C -2.7 °F /  -19.3 °C 1014.1 in /  34337.4 hPa ENE 6.6 mph /  10.6 km/h 14.0 mph /  22.5 km/h 75 % 0.0 in /  0 mm
14:11 1.1 °F /  -17.2 °C -2.8 °F /  -19.3 °C 1014.1 in /  34337.4 hPa ENE 6.4 mph /  10.3 km/h 14.0 mph /  22.5 km/h 75 % 0.0 in /  0 mm
14:16 1.1 °F /  -17.2 °C -2.8 °F /  -19.3 °C 1014.1 in /  34337.4 hPa East 5.1 mph /  8.2 km/h 7.2 mph /  11.6 km/h 75 % 0.0 in /  0 mm
14:21 1.1 °F /  -17.2 °C -2.8 °F /  -19.3 °C 1014.1 in /  34337.4 hPa East 4.3 mph /  6.9 km/h 9.0 mph /  14.5 km/h 75 % 0.0 in /  0 mm
14:26 1.0 °F /  -17.2 °C -2.9 °F /  -19.4 °C 1014.1 in /  34337.4 hPa East 6.1 mph /  9.8 km/h 11.9 mph /  19.2 km/h 75 % 0.0 in /  0 mm
14:31 1.0 °F /  -17.2 °C -2.9 °F /  -19.4 °C 1014.1 in /  34337.4 hPa ENE 7.4 mph /  11.9 km/h 11.9 mph /  19.2 km/h 75 % 0.0 in /  0 mm
14:36 1.0 °F /  -17.2 °C -2.9 °F /  -19.4 °C 1014.1 in /  34337.4 hPa East 6.6 mph /  10.6 km/h 11.6 mph /  18.7 km/h 75 % 0.0 in /  0 mm
14:41 1.1 °F /  -17.2 °C -2.8 °F /  -19.3 °C 1013.1 in /  34303.6 hPa ENE 6.0 mph /  9.7 km/h 11.6 mph /  18.7 km/h 75 % 0.0 in /  0 mm
14:46 1.1 °F /  -17.2 °C -2.8 °F /  -19.3 °C 1013.1 in /  34303.6 hPa ENE 5.1 mph /  8.2 km/h 7.9 mph /  12.7 km/h 75 % 0.0 in /  0 mm
14:51 1.1 °F /  -17.2 °C -2.8 °F /  -19.3 °C 1013.1 in /  34303.6 hPa East 6.3 mph /  10.1 km/h 11.9 mph /  19.2 km/h 75 % 0.0 in /  0 mm
14:56 1.1 °F /  -17.2 °C -2.8 °F /  -19.3 °C 1014.1 in /  34337.4 hPa East 6.0 mph /  9.7 km/h 11.9 mph /  19.2 km/h 75 % 0.0 in /  0 mm
15:01 1.1 °F /  -17.2 °C -2.8 °F /  -19.3 °C 1014.1 in /  34337.4 hPa ENE 5.0 mph /  8 km/h 9.3 mph /  15 km/h 75 % 0.0 in /  0 mm
15:06 1.1 °F /  -17.2 °C -2.8 °F /  -19.3 °C 1014.1 in /  34337.4 hPa ENE 4.7 mph /  7.6 km/h 9.0 mph /  14.5 km/h 75 % 0.0 in /  0 mm
15:11 1.1 °F /  -17.2 °C -2.8 °F /  -19.3 °C 1014.1 in /  34337.4 hPa ENE 3.9 mph /  6.3 km/h 8.7 mph /  14 km/h 75 % 0.0 in /  0 mm
15:16 1.0 °F /  -17.2 °C -2.9 °F /  -19.4 °C 1014.1 in /  34337.4 hPa ENE 3.9 mph /  6.3 km/h 8.7 mph /  14 km/h 75 % 0.0 in /  0 mm
15:21 1.1 °F /  -17.2 °C -2.8 °F /  -19.3 °C 1014.1 in /  34337.4 hPa ENE 3.9 mph /  6.3 km/h 7.9 mph /  12.7 km/h 75 % 0.0 in /  0 mm
15:26 1.0 °F /  -17.2 °C -2.9 °F /  -19.4 °C 1014.1 in /  34337.4 hPa NE 3.9 mph /  6.3 km/h 7.9 mph /  12.7 km/h 75 % 0.0 in /  0 mm
15:31 1.0 °F /  -17.2 °C -2.9 °F /  -19.4 °C 1014.1 in /  34337.4 hPa East 4.2 mph /  6.8 km/h 6.9 mph /  11.1 km/h 75 % 0.0 in /  0 mm
15:36 1.0 °F /  -17.2 °C -2.8 °F /  -19.3 °C 1014.1 in /  34337.4 hPa East 4.8 mph /  7.7 km/h 9.3 mph /  15 km/h 76 % 0.0 in /  0 mm
15:41 1.0 °F /  -17.2 °C -2.8 °F /  -19.3 °C 1013.1 in /  34303.6 hPa East 6.4 mph /  10.3 km/h 10.5 mph /  16.9 km/h 76 % 0.0 in /  0 mm
15:46 1.0 °F /  -17.2 °C -2.8 °F /  -19.3 °C 1013.1 in /  34303.6 hPa East 6.1 mph /  9.8 km/h 10.5 mph /  16.9 km/h 76 % 0.0 in /  0 mm
15:51 1.0 °F /  -17.2 °C -2.8 °F /  -19.3 °C 1013.1 in /  34303.6 hPa East 5.8 mph /  9.3 km/h 9.3 mph /  15 km/h 76 % 0.0 in /  0 mm
15:56 1.0 °F /  -17.2 °C -2.8 °F /  -19.3 °C 1014.1 in /  34337.4 hPa ENE 6.1 mph /  9.8 km/h 9.7 mph /  15.6 km/h 76 % 0.0 in /  0 mm
16:01 1.0 °F /  -17.2 °C -2.8 °F /  -19.3 °C 1014.1 in /  34337.4 hPa ENE 3.9 mph /  6.3 km/h 9.7 mph /  15.6 km/h 76 % 0.0 in /  0 mm
16:06 1.0 °F /  -17.2 °C -2.8 °F /  -19.3 °C 1014.1 in /  34337.4 hPa East 3.9 mph /  6.3 km/h 8.7 mph /  14 km/h 76 % 0.0 in /  0 mm
16:11 1.0 °F /  -17.2 °C -2.8 °F /  -19.3 °C 1014.1 in /  34337.4 hPa East 4.5 mph /  7.2 km/h 8.7 mph /  14 km/h 76 % 0.0 in /  0 mm
16:16 1.0 °F /  -17.2 °C -2.8 °F /  -19.3 °C 1014.1 in /  34337.4 hPa East 3.4 mph /  5.5 km/h 9.0 mph /  14.5 km/h 76 % 0.0 in /  0 mm
16:21 0.9 °F /  -17.3 °C -2.8 °F /  -19.3 °C 1014.1 in /  34337.4 hPa ENE 3.9 mph /  6.3 km/h 10.1 mph /  16.3 km/h 76 % 0.0 in /  0 mm
16:26 0.9 °F /  -17.3 °C -2.8 °F /  -19.3 °C 1014.1 in /  34337.4 hPa ENE 4.3 mph /  6.9 km/h 10.1 mph /  16.3 km/h 76 % 0.0 in /  0 mm
16:31 0.9 °F /  -17.3 °C -2.8 °F /  -19.3 °C 1014.1 in /  34337.4 hPa East 2.7 mph /  4.3 km/h 6.4 mph /  10.3 km/h 76 % 0.0 in /  0 mm
16:36 0.8 °F /  -17.3 °C -2.9 °F /  -19.4 °C 1014.1 in /  34337.4 hPa ESE 2.3 mph /  3.7 km/h 6.4 mph /  10.3 km/h 76 % 0.0 in /  0 mm
16:41 0.8 °F /  -17.3 °C -2.9 °F /  -19.4 °C 1014.1 in /  34337.4 hPa East 4.2 mph /  6.8 km/h 8.7 mph /  14 km/h 76 % 0.0 in /  0 mm
16:46 0.7 °F /  -17.4 °C -3.1 °F /  -19.5 °C 1014.1 in /  34337.4 hPa ENE 5.0 mph /  8 km/h 8.7 mph /  14 km/h 76 % 0.0 in /  0 mm
16:51 0.7 °F /  -17.4 °C -3.1 °F /  -19.5 °C 1014.1 in /  34337.4 hPa ENE 3.7 mph /  6 km/h 8.7 mph /  14 km/h 76 % 0.0 in /  0 mm
16:56 0.7 °F /  -17.4 °C -3.1 °F /  -19.5 °C 1015.1 in /  34371.3 hPa ESE 3.5 mph /  5.6 km/h 6.9 mph /  11.1 km/h 76 % 0.0 in /  0 mm
17:02 0.7 °F /  -17.4 °C -3.1 °F /  -19.5 °C 1015.1 in /  34371.3 hPa East 4.2 mph /  6.8 km/h 6.9 mph /  11.1 km/h 76 % 0.0 in /  0 mm
17:07 0.7 °F /  -17.4 °C -3.1 °F /  -19.5 °C 1015.1 in /  34371.3 hPa East 4.0 mph /  6.4 km/h 6.9 mph /  11.1 km/h 76 % 0.0 in /  0 mm
17:12 0.7 °F /  -17.4 °C -3.1 °F /  -19.5 °C 1015.1 in /  34371.3 hPa East 4.8 mph /  7.7 km/h 11.6 mph /  18.7 km/h 76 % 0.0 in /  0 mm
17:17 0.7 °F /  -17.4 °C -3.1 °F /  -19.5 °C 1015.1 in /  34371.3 hPa East 6.1 mph /  9.8 km/h 11.6 mph /  18.7 km/h 76 % 0.0 in /  0 mm
17:22 0.7 °F /  -17.4 °C -2.9 °F /  -19.4 °C 1015.1 in /  34371.3 hPa ENE 5.8 mph /  9.3 km/h 12.2 mph /  19.6 km/h 77 % 0.0 in /  0 mm
17:27 0.6 °F /  -17.4 °C -2.9 °F /  -19.4 °C 1015.1 in /  34371.3 hPa East 6.1 mph /  9.8 km/h 13.0 mph /  20.9 km/h 77 % 0.0 in /  0 mm
17:32 0.6 °F /  -17.4 °C -2.9 °F /  -19.4 °C 1015.1 in /  34371.3 hPa East 5.8 mph /  9.3 km/h 13.0 mph /  20.9 km/h 77 % 0.0 in /  0 mm
17:37 0.6 °F /  -17.4 °C -2.9 °F /  -19.4 °C 1015.1 in /  34371.3 hPa East 4.2 mph /  6.8 km/h 7.2 mph /  11.6 km/h 77 % 0.0 in /  0 mm
17:42 0.6 °F /  -17.4 °C -2.9 °F /  -19.4 °C 1015.1 in /  34371.3 hPa East 5.3 mph /  8.5 km/h 12.6 mph /  20.3 km/h 77 % 0.0 in /  0 mm
17:47 0.6 °F /  -17.4 °C -2.9 °F /  -19.4 °C 1015.1 in /  34371.3 hPa East 6.3 mph /  10.1 km/h 12.6 mph /  20.3 km/h 77 % 0.0 in /  0 mm
17:52 0.5 °F /  -17.5 °C -3.1 °F /  -19.5 °C 1015.1 in /  34371.3 hPa East 3.9 mph /  6.3 km/h 10.5 mph /  16.9 km/h 77 % 0.0 in /  0 mm
17:57 0.5 °F /  -17.5 °C -3.1 °F /  -19.5 °C 1015.1 in /  34371.3 hPa ENE 4.8 mph /  7.7 km/h 12.6 mph /  20.3 km/h 77 % 0.0 in /  0 mm
18:02 0.4 °F /  -17.6 °C -3.2 °F /  -19.6 °C 1015.1 in /  34371.3 hPa ENE 6.1 mph /  9.8 km/h 12.6 mph /  20.3 km/h 77 % 0.0 in /  0 mm
18:07 0.4 °F /  -17.6 °C -3.2 °F /  -19.6 °C 1015.1 in /  34371.3 hPa ENE 4.3 mph /  6.9 km/h 8.7 mph /  14 km/h 77 % 0.0 in /  0 mm
18:12 0.4 °F /  -17.6 °C -3.2 °F /  -19.6 °C 1015.1 in /  34371.3 hPa East 5.3 mph /  8.5 km/h 10.1 mph /  16.3 km/h 77 % 0.0 in /  0 mm
18:17 0.4 °F /  -17.6 °C -3.0 °F /  -19.4 °C 1015.1 in /  34371.3 hPa East 6.3 mph /  10.1 km/h 10.1 mph /  16.3 km/h 78 % 0.0 in /  0 mm
18:22 0.3 °F /  -17.6 °C -3.1 °F /  -19.5 °C 1015.1 in /  34371.3 hPa East 5.1 mph /  8.2 km/h 7.9 mph /  12.7 km/h 78 % 0.0 in /  0 mm
18:27 0.3 °F /  -17.6 °C -3.1 °F /  -19.5 °C 1015.1 in /  34371.3 hPa East 5.0 mph /  8 km/h 9.3 mph /  15 km/h 78 % 0.0 in /  0 mm
18:32 0.3 °F /  -17.6 °C -3.1 °F /  -19.5 °C 1015.1 in /  34371.3 hPa ENE 5.0 mph /  8 km/h 9.3 mph /  15 km/h 78 % 0.0 in /  0 mm
18:37 0.3 °F /  -17.6 °C -3.1 °F /  -19.5 °C 1015.1 in /  34371.3 hPa ENE 5.1 mph /  8.2 km/h 9.3 mph /  15 km/h 78 % 0.0 in /  0 mm
18:42 0.3 °F /  -17.6 °C -3.1 °F /  -19.5 °C 1014.1 in /  34337.4 hPa East 4.5 mph /  7.2 km/h 9.3 mph /  15 km/h 78 % 0.0 in /  0 mm
18:47 0.3 °F /  -17.6 °C -3.1 °F /  -19.5 °C 1014.1 in /  34337.4 hPa East 3.9 mph /  6.3 km/h 8.7 mph /  14 km/h 78 % 0.0 in /  0 mm
18:52 0.3 °F /  -17.6 °C -3.1 °F /  -19.5 °C 1014.1 in /  34337.4 hPa East 4.8 mph /  7.7 km/h 8.7 mph /  14 km/h 78 % 0.0 in /  0 mm
18:57 0.3 °F /  -17.6 °C -2.9 °F /  -19.4 °C 1015.1 in /  34371.3 hPa ENE 5.0 mph /  8 km/h 6.9 mph /  11.1 km/h 79 % 0.0 in /  0 mm
19:02 0.3 °F /  -17.6 °C -2.9 °F /  -19.4 °C 1015.1 in /  34371.3 hPa ENE 4.0 mph /  6.4 km/h 6.9 mph /  11.1 km/h 79 % 0.0 in /  0 mm
19:07 0.3 °F /  -17.6 °C -2.9 °F /  -19.4 °C 1015.1 in /  34371.3 hPa ENE 4.0 mph /  6.4 km/h 10.5 mph /  16.9 km/h 79 % 0.0 in /  0 mm
19:12 0.3 °F /  -17.6 °C -2.9 °F /  -19.4 °C 1015.1 in /  34371.3 hPa ENE 4.7 mph /  7.6 km/h 10.5 mph /  16.9 km/h 79 % 0.0 in /  0 mm
Vremenska postaja Senovo
Podatki zbrani iz Weather Underground - 2.5 mb

Script developed by  Jim McMurry - jmcmurry@mwt.net Adapted for the template by  Wim van der Kuil - Leuven-Template.eu

Vremenski podatki so objavljeni na:

European Weather Network

WeatherCloud

Weather Underground

AWEKAS

HAMweather, WeatherForYou, PWS Weather

MapView

Geostik

Slovenia weather network

Oprema, ki se uporablja:

Vremenski program
Cumulus

Vremenski server
Asus

Cumulus

Asus